sensor_id;sensor_type;location;lat;lon;timestamp;temperature;humidity
5978;DHT22;3015;51.390;12.256;2022-08-03T00:01:35;16.20;99.90
5978;DHT22;3015;51.390;12.256;2022-08-03T00:04:00;16.10;72.90
5978;DHT22;3015;51.390;12.256;2022-08-03T00:06:26;16.00;1.00
5978;DHT22;3015;51.390;12.256;2022-08-03T00:08:52;15.90;99.90
5978;DHT22;3015;51.390;12.256;2022-08-03T00:11:18;15.90;90.80
5978;DHT22;3015;51.390;12.256;2022-08-03T00:13:44;15.80;34.50
5978;DHT22;3015;51.390;12.256;2022-08-03T00:16:09;15.80;99.90
5978;DHT22;3015;51.390;12.256;2022-08-03T00:18:36;15.80;90.40
5978;DHT22;3015;51.390;12.256;2022-08-03T00:21:02;15.90;99.90
5978;DHT22;3015;51.390;12.256;2022-08-03T00:23:28;15.90;99.90
5978;DHT22;3015;51.390;12.256;2022-08-03T00:25:54;15.80;99.90
5978;DHT22;3015;51.390;12.256;2022-08-03T00:28:20;15.80;99.90
5978;DHT22;3015;51.390;12.256;2022-08-03T00:30:45;15.80;99.90
5978;DHT22;3015;51.390;12.256;2022-08-03T00:33:11;15.70;99.90
5978;DHT22;3015;51.390;12.256;2022-08-03T00:35:37;15.60;99.90
5978;DHT22;3015;51.390;12.256;2022-08-03T00:38:03;15.60;60.80
5978;DHT22;3015;51.390;12.256;2022-08-03T00:40:28;15.60;99.90
5978;DHT22;3015;51.390;12.256;2022-08-03T00:42:59;15.60;99.90
5978;DHT22;3015;51.390;12.256;2022-08-03T00:45:30;15.60;1.00
5978;DHT22;3015;51.390;12.256;2022-08-03T00:47:57;15.60;99.90
5978;DHT22;3015;51.390;12.256;2022-08-03T00:50:24;15.60;99.90
5978;DHT22;3015;51.390;12.256;2022-08-03T00:52:52;15.60;1.00
5978;DHT22;3015;51.390;12.256;2022-08-03T00:55:19;15.60;99.90
5978;DHT22;3015;51.390;12.256;2022-08-03T00:57:45;15.60;99.90
5978;DHT22;3015;51.390;12.256;2022-08-03T01:00:13;15.60;1.00
5978;DHT22;3015;51.390;12.256;2022-08-03T01:02:40;15.60;1.00
5978;DHT22;3015;51.390;12.256;2022-08-03T01:05:06;15.50;1.00
5978;DHT22;3015;51.390;12.256;2022-08-03T01:07:56;15.50;1.00
5978;DHT22;3015;51.390;12.256;2022-08-03T01:10:38;15.50;64.20
5978;DHT22;3015;51.390;12.256;2022-08-03T01:13:24;15.40;1.00
5978;DHT22;3015;51.390;12.256;2022-08-03T01:15:59;15.50;1.00
5978;DHT22;3015;51.390;12.256;2022-08-03T01:18:40;15.50;1.00
5978;DHT22;3015;51.390;12.256;2022-08-03T01:21:12;15.50;1.00
5978;DHT22;3015;51.390;12.256;2022-08-03T01:31:58;15.20;1.00
5978;DHT22;3015;51.390;12.256;2022-08-03T01:34:30;15.10;99.90
5978;DHT22;3015;51.390;12.256;2022-08-03T01:36:58;15.10;99.90
5978;DHT22;3015;51.390;12.256;2022-08-03T01:39:27;15.10;75.50
5978;DHT22;3015;51.390;12.256;2022-08-03T01:41:58;15.30;1.00
5978;DHT22;3015;51.390;12.256;2022-08-03T01:44:28;15.30;99.90
5978;DHT22;3015;51.390;12.256;2022-08-03T01:46:57;15.20;99.90
5978;DHT22;3015;51.390;12.256;2022-08-03T01:49:24;15.20;99.90
5978;DHT22;3015;51.390;12.256;2022-08-03T01:51:51;15.10;99.90
5978;DHT22;3015;51.390;12.256;2022-08-03T01:54:18;15.20;99.90
5978;DHT22;3015;51.390;12.256;2022-08-03T01:56:45;15.10;99.90
5978;DHT22;3015;51.390;12.256;2022-08-03T01:59:15;15.10;99.90
5978;DHT22;3015;51.390;12.256;2022-08-03T02:01:42;15.10;99.90
5978;DHT22;3015;51.390;12.256;2022-08-03T02:04:10;15.10;1.00
5978;DHT22;3015;51.390;12.256;2022-08-03T02:06:38;15.00;99.90
5978;DHT22;3015;51.390;12.256;2022-08-03T02:09:05;15.00;1.00
5978;DHT22;3015;51.390;12.256;2022-08-03T02:11:33;15.00;99.90
5978;DHT22;3015;51.390;12.256;2022-08-03T02:14:01;15.00;1.00
5978;DHT22;3015;51.390;12.256;2022-08-03T02:16:30;14.90;99.90
5978;DHT22;3015;51.390;12.256;2022-08-03T02:18:57;14.90;1.00
5978;DHT22;3015;51.390;12.256;2022-08-03T02:21:26;14.90;99.90
5978;DHT22;3015;51.390;12.256;2022-08-03T02:23:53;14.80;99.90
5978;DHT22;3015;51.390;12.256;2022-08-03T02:26:19;14.80;1.00
5978;DHT22;3015;51.390;12.256;2022-08-03T02:28:47;14.80;1.00
5978;DHT22;3015;51.390;12.256;2022-08-03T02:31:18;14.90;99.90
5978;DHT22;3015;51.390;12.256;2022-08-03T02:33:55;14.80;68.40
5978;DHT22;3015;51.390;12.256;2022-08-03T02:36:25;14.90;99.90
5978;DHT22;3015;51.390;12.256;2022-08-03T02:38:58;14.80;96.50
5978;DHT22;3015;51.390;12.256;2022-08-03T02:41:40;14.80;99.90
5978;DHT22;3015;51.390;12.256;2022-08-03T02:44:08;14.80;99.90
5978;DHT22;3015;51.390;12.256;2022-08-03T02:46:37;14.60;1.00
5978;DHT22;3015;51.390;12.256;2022-08-03T02:49:04;14.60;1.00
5978;DHT22;3015;51.390;12.256;2022-08-03T02:51:33;14.60;1.00
5978;DHT22;3015;51.390;12.256;2022-08-03T02:54:01;14.60;1.00
5978;DHT22;3015;51.390;12.256;2022-08-03T02:56:27;14.60;1.00
5978;DHT22;3015;51.390;12.256;2022-08-03T02:58:55;14.70;1.00
5978;DHT22;3015;51.390;12.256;2022-08-03T03:01:23;14.60;1.00
5978;DHT22;3015;51.390;12.256;2022-08-03T03:03:51;14.60;1.00
5978;DHT22;3015;51.390;12.256;2022-08-03T03:06:18;14.60;1.00
5978;DHT22;3015;51.390;12.256;2022-08-03T03:08:45;14.60;1.00
5978;DHT22;3015;51.390;12.256;2022-08-03T03:11:12;14.60;35.60
5978;DHT22;3015;51.390;12.256;2022-08-03T03:13:41;14.50;71.80
5978;DHT22;3015;51.390;12.256;2022-08-03T03:16:09;14.50;1.00
5978;DHT22;3015;51.390;12.256;2022-08-03T03:18:37;14.50;1.00
5978;DHT22;3015;51.390;12.256;2022-08-03T03:21:03;14.50;99.90
5978;DHT22;3015;51.390;12.256;2022-08-03T03:23:30;14.50;99.90
5978;DHT22;3015;51.390;12.256;2022-08-03T03:25:56;14.50;99.90
5978;DHT22;3015;51.390;12.256;2022-08-03T03:28:23;14.50;1.00
5978;DHT22;3015;51.390;12.256;2022-08-03T03:30:49;14.50;99.90
5978;DHT22;3015;51.390;12.256;2022-08-03T03:33:16;14.40;1.00
5978;DHT22;3015;51.390;12.256;2022-08-03T03:35:42;14.40;1.00
5978;DHT22;3015;51.390;12.256;2022-08-03T03:38:10;14.40;99.90
5978;DHT22;3015;51.390;12.256;2022-08-03T03:40:36;14.50;99.90
5978;DHT22;3015;51.390;12.256;2022-08-03T03:43:06;14.50;8.80
5978;DHT22;3015;51.390;12.256;2022-08-03T03:45:33;14.40;1.00
5978;DHT22;3015;51.390;12.256;2022-08-03T03:48:01;14.40;1.00
5978;DHT22;3015;51.390;12.256;2022-08-03T03:50:29;14.40;99.90
5978;DHT22;3015;51.390;12.256;2022-08-03T03:52:56;14.40;1.00
5978;DHT22;3015;51.390;12.256;2022-08-03T03:55:22;14.50;60.50
5978;DHT22;3015;51.390;12.256;2022-08-03T03:57:48;14.50;38.80
5978;DHT22;3015;51.390;12.256;2022-08-03T04:00:15;14.50;99.90
5978;DHT22;3015;51.390;12.256;2022-08-03T04:02:41;14.50;11.90
5978;DHT22;3015;51.390;12.256;2022-08-03T04:05:07;14.60;99.90
5978;DHT22;3015;51.390;12.256;2022-08-03T04:07:57;14.60;80.80
5978;DHT22;3015;51.390;12.256;2022-08-03T04:10:45;14.70;1.00
5978;DHT22;3015;51.390;12.256;2022-08-03T04:13:28;14.80;69.80
5978;DHT22;3015;51.390;12.256;2022-08-03T04:15:56;14.80;1.00
5978;DHT22;3015;51.390;12.256;2022-08-03T04:18:23;14.80;1.00
5978;DHT22;3015;51.390;12.256;2022-08-03T04:20:51;14.80;99.90
5978;DHT22;3015;51.390;12.256;2022-08-03T04:23:19;14.80;1.00
5978;DHT22;3015;51.390;12.256;2022-08-03T04:25:48;14.80;1.00
5978;DHT22;3015;51.390;12.256;2022-08-03T04:28:16;14.80;1.00
5978;DHT22;3015;51.390;12.256;2022-08-03T04:30:44;14.80;1.00
5978;DHT22;3015;51.390;12.256;2022-08-03T04:33:13;14.80;1.00
5978;DHT22;3015;51.390;12.256;2022-08-03T04:35:43;14.90;1.00
5978;DHT22;3015;51.390;12.256;2022-08-03T04:38:13;15.00;99.90
5978;DHT22;3015;51.390;12.256;2022-08-03T04:40:41;15.10;99.90
5978;DHT22;3015;51.390;12.256;2022-08-03T04:43:09;15.10;99.90
5978;DHT22;3015;51.390;12.256;2022-08-03T04:45:35;15.20;17.90
5978;DHT22;3015;51.390;12.256;2022-08-03T04:48:03;15.30;1.00
5978;DHT22;3015;51.390;12.256;2022-08-03T04:50:29;15.50;1.00
5978;DHT22;3015;51.390;12.256;2022-08-03T04:52:55;15.70;99.20
5978;DHT22;3015;51.390;12.256;2022-08-03T04:55:31;15.70;61.10
5978;DHT22;3015;51.390;12.256;2022-08-03T04:57:57;15.80;99.90
5978;DHT22;3015;51.390;12.256;2022-08-03T05:00:23;15.80;99.90
5978;DHT22;3015;51.390;12.256;2022-08-03T05:02:49;15.90;1.00
5978;DHT22;3015;51.390;12.256;2022-08-03T05:05:16;16.00;99.90
5978;DHT22;3015;51.390;12.256;2022-08-03T05:07:42;16.10;99.90
5978;DHT22;3015;51.390;12.256;2022-08-03T05:10:09;16.20;1.00
5978;DHT22;3015;51.390;12.256;2022-08-03T05:12:35;16.30;1.00
5978;DHT22;3015;51.390;12.256;2022-08-03T05:15:01;16.40;1.00
5978;DHT22;3015;51.390;12.256;2022-08-03T05:17:27;16.60;99.90
5978;DHT22;3015;51.390;12.256;2022-08-03T05:19:54;16.80;99.90
5978;DHT22;3015;51.390;12.256;2022-08-03T05:22:20;16.90;1.00
5978;DHT22;3015;51.390;12.256;2022-08-03T05:24:46;17.10;99.90
5978;DHT22;3015;51.390;12.256;2022-08-03T05:27:12;17.20;99.90
5978;DHT22;3015;51.390;12.256;2022-08-03T05:29:44;17.40;99.90
5978;DHT22;3015;51.390;12.256;2022-08-03T05:32:09;17.60;1.00
5978;DHT22;3015;51.390;12.256;2022-08-03T05:34:35;17.80;1.00
5978;DHT22;3015;51.390;12.256;2022-08-03T05:37:01;18.00;1.00
5978;DHT22;3015;51.390;12.256;2022-08-03T05:39:26;18.20;1.00
5978;DHT22;3015;51.390;12.256;2022-08-03T05:41:52;18.30;1.00
5978;DHT22;3015;51.390;12.256;2022-08-03T05:44:17;18.50;1.00
5978;DHT22;3015;51.390;12.256;2022-08-03T05:46:43;18.80;1.00
5978;DHT22;3015;51.390;12.256;2022-08-03T05:49:09;18.90;99.90
5978;DHT22;3015;51.390;12.256;2022-08-03T05:51:34;19.10;99.90
5978;DHT22;3015;51.390;12.256;2022-08-03T05:54:01;19.30;99.90
5978;DHT22;3015;51.390;12.256;2022-08-03T05:56:27;19.50;99.90
5978;DHT22;3015;51.390;12.256;2022-08-03T05:58:53;19.70;99.90
5978;DHT22;3015;51.390;12.256;2022-08-03T06:01:19;19.90;99.90
5978;DHT22;3015;51.390;12.256;2022-08-03T06:03:49;20.00;99.90
5978;DHT22;3015;51.390;12.256;2022-08-03T06:06:15;20.20;99.90
5978;DHT22;3015;51.390;12.256;2022-08-03T06:08:41;20.30;99.90
5978;DHT22;3015;51.390;12.256;2022-08-03T06:11:07;20.40;99.90
5978;DHT22;3015;51.390;12.256;2022-08-03T06:13:34;20.60;99.90
5978;DHT22;3015;51.390;12.256;2022-08-03T06:16:00;20.80;99.90
5978;DHT22;3015;51.390;12.256;2022-08-03T06:18:26;21.00;99.90
5978;DHT22;3015;51.390;12.256;2022-08-03T06:20:52;21.20;99.90
5978;DHT22;3015;51.390;12.256;2022-08-03T06:23:17;21.30;99.90
5978;DHT22;3015;51.390;12.256;2022-08-03T06:25:43;21.50;99.90
5978;DHT22;3015;51.390;12.256;2022-08-03T06:28:09;21.70;99.90
5978;DHT22;3015;51.390;12.256;2022-08-03T06:30:34;21.90;99.90
5978;DHT22;3015;51.390;12.256;2022-08-03T06:33:00;22.10;99.90
5978;DHT22;3015;51.390;12.256;2022-08-03T06:35:26;22.40;99.90
5978;DHT22;3015;51.390;12.256;2022-08-03T06:37:53;22.70;99.90
5978;DHT22;3015;51.390;12.256;2022-08-03T06:40:20;22.90;99.90
5978;DHT22;3015;51.390;12.256;2022-08-03T06:42:55;23.10;99.90
5978;DHT22;3015;51.390;12.256;2022-08-03T06:45:21;23.30;99.90
5978;DHT22;3015;51.390;12.256;2022-08-03T06:47:47;23.40;99.90
5978;DHT22;3015;51.390;12.256;2022-08-03T06:50:12;23.60;99.90
5978;DHT22;3015;51.390;12.256;2022-08-03T06:52:38;23.80;99.90
5978;DHT22;3015;51.390;12.256;2022-08-03T06:55:04;24.00;99.90
5978;DHT22;3015;51.390;12.256;2022-08-03T06:57:30;24.30;99.90
5978;DHT22;3015;51.390;12.256;2022-08-03T06:59:56;24.40;99.90
5978;DHT22;3015;51.390;12.256;2022-08-03T07:02:27;24.60;99.90
5978;DHT22;3015;51.390;12.256;2022-08-03T07:04:52;24.80;99.90
5978;DHT22;3015;51.390;12.256;2022-08-03T07:07:18;25.10;99.90
5978;DHT22;3015;51.390;12.256;2022-08-03T07:09:45;25.30;99.90
5978;DHT22;3015;51.390;12.256;2022-08-03T07:12:10;25.60;99.90
5978;DHT22;3015;51.390;12.256;2022-08-03T07:14:36;25.70;99.90
5978;DHT22;3015;51.390;12.256;2022-08-03T07:17:01;25.90;99.90
5978;DHT22;3015;51.390;12.256;2022-08-03T07:19:27;26.30;99.90
5978;DHT22;3015;51.390;12.256;2022-08-03T07:21:53;26.60;99.90
5978;DHT22;3015;51.390;12.256;2022-08-03T07:24:19;26.90;99.90
5978;DHT22;3015;51.390;12.256;2022-08-03T07:26:44;27.20;99.90
5978;DHT22;3015;51.390;12.256;2022-08-03T07:29:10;27.50;99.90
5978;DHT22;3015;51.390;12.256;2022-08-03T07:31:35;27.80;99.90
5978;DHT22;3015;51.390;12.256;2022-08-03T07:34:01;28.10;99.90
5978;DHT22;3015;51.390;12.256;2022-08-03T07:36:27;28.70;99.90
5978;DHT22;3015;51.390;12.256;2022-08-03T07:38:52;29.20;99.90
5978;DHT22;3015;51.390;12.256;2022-08-03T07:41:18;29.60;99.90
5978;DHT22;3015;51.390;12.256;2022-08-03T07:43:44;30.00;99.90
5978;DHT22;3015;51.390;12.256;2022-08-03T07:46:10;30.50;99.90
5978;DHT22;3015;51.390;12.256;2022-08-03T07:48:35;30.80;99.90
5978;DHT22;3015;51.390;12.256;2022-08-03T07:51:01;31.30;99.90
5978;DHT22;3015;51.390;12.256;2022-08-03T07:53:27;31.80;99.90
5978;DHT22;3015;51.390;12.256;2022-08-03T07:55:53;32.40;99.90
5978;DHT22;3015;51.390;12.256;2022-08-03T07:58:18;33.10;99.90
5978;DHT22;3015;51.390;12.256;2022-08-03T08:00:44;33.70;99.90
5978;DHT22;3015;51.390;12.256;2022-08-03T08:03:10;34.40;99.90
5978;DHT22;3015;51.390;12.256;2022-08-03T08:05:36;35.20;99.90
5978;DHT22;3015;51.390;12.256;2022-08-03T08:08:02;35.90;99.90
5978;DHT22;3015;51.390;12.256;2022-08-03T08:10:29;36.10;99.90
5978;DHT22;3015;51.390;12.256;2022-08-03T08:12:55;36.40;99.90
5978;DHT22;3015;51.390;12.256;2022-08-03T08:15:21;36.70;99.90
5978;DHT22;3015;51.390;12.256;2022-08-03T08:17:52;37.20;99.90
5978;DHT22;3015;51.390;12.256;2022-08-03T08:20:21;37.50;99.90
5978;DHT22;3015;51.390;12.256;2022-08-03T08:22:47;38.10;99.90
5978;DHT22;3015;51.390;12.256;2022-08-03T08:25:12;38.30;99.90
5978;DHT22;3015;51.390;12.256;2022-08-03T08:27:47;38.80;99.90
5978;DHT22;3015;51.390;12.256;2022-08-03T08:30:14;39.50;99.90
5978;DHT22;3015;51.390;12.256;2022-08-03T08:32:41;40.10;99.90
5978;DHT22;3015;51.390;12.256;2022-08-03T08:35:07;40.70;99.90
5978;DHT22;3015;51.390;12.256;2022-08-03T08:37:33;41.10;99.90
5978;DHT22;3015;51.390;12.256;2022-08-03T08:39:59;42.20;99.90
5978;DHT22;3015;51.390;12.256;2022-08-03T08:42:25;42.10;99.90
5978;DHT22;3015;51.390;12.256;2022-08-03T08:44:51;41.90;99.90
5978;DHT22;3015;51.390;12.256;2022-08-03T08:47:23;41.70;99.90
5978;DHT22;3015;51.390;12.256;2022-08-03T08:49:52;41.80;99.90
5978;DHT22;3015;51.390;12.256;2022-08-03T08:52:22;41.80;99.90
5978;DHT22;3015;51.390;12.256;2022-08-03T08:54:48;41.80;99.90
5978;DHT22;3015;51.390;12.256;2022-08-03T08:57:15;42.30;99.90
5978;DHT22;3015;51.390;12.256;2022-08-03T08:59:42;42.20;99.90
5978;DHT22;3015;51.390;12.256;2022-08-03T09:02:09;42.40;99.90
5978;DHT22;3015;51.390;12.256;2022-08-03T09:04:37;42.90;99.90
5978;DHT22;3015;51.390;12.256;2022-08-03T09:07:03;43.00;99.90
5978;DHT22;3015;51.390;12.256;2022-08-03T09:09:30;43.10;99.90
5978;DHT22;3015;51.390;12.256;2022-08-03T09:11:55;43.10;99.90
5978;DHT22;3015;51.390;12.256;2022-08-03T09:14:22;43.00;99.90
5978;DHT22;3015;51.390;12.256;2022-08-03T09:16:58;42.70;99.90
5978;DHT22;3015;51.390;12.256;2022-08-03T09:19:26;43.00;99.90
5978;DHT22;3015;51.390;12.256;2022-08-03T09:22:16;44.30;99.90
5978;DHT22;3015;51.390;12.256;2022-08-03T09:25:04;44.50;99.90
5978;DHT22;3015;51.390;12.256;2022-08-03T09:27:50;43.50;99.90
5978;DHT22;3015;51.390;12.256;2022-08-03T09:30:17;44.20;99.90
5978;DHT22;3015;51.390;12.256;2022-08-03T09:32:43;43.80;99.90
5978;DHT22;3015;51.390;12.256;2022-08-03T09:35:13;43.60;99.90
5978;DHT22;3015;51.390;12.256;2022-08-03T09:37:39;43.30;99.90
5978;DHT22;3015;51.390;12.256;2022-08-03T09:40:06;43.30;99.90
5978;DHT22;3015;51.390;12.256;2022-08-03T09:42:32;44.10;99.90
5978;DHT22;3015;51.390;12.256;2022-08-03T09:45:03;44.70;99.90
5978;DHT22;3015;51.390;12.256;2022-08-03T09:50:05;44.50;99.90
5978;DHT22;3015;51.390;12.256;2022-08-03T09:52:39;44.70;99.90
5978;DHT22;3015;51.390;12.256;2022-08-03T09:55:10;44.90;99.90
5978;DHT22;3015;51.390;12.256;2022-08-03T09:57:36;44.10;99.90
5978;DHT22;3015;51.390;12.256;2022-08-03T10:00:12;43.90;99.90
5978;DHT22;3015;51.390;12.256;2022-08-03T10:02:40;44.60;99.90
5978;DHT22;3015;51.390;12.256;2022-08-03T10:05:07;45.00;99.90
5978;DHT22;3015;51.390;12.256;2022-08-03T10:07:44;45.30;99.90
5978;DHT22;3015;51.390;12.256;2022-08-03T10:10:11;45.30;99.90
5978;DHT22;3015;51.390;12.256;2022-08-03T10:12:37;45.40;99.90
5978;DHT22;3015;51.390;12.256;2022-08-03T10:15:05;45.20;99.90
5978;DHT22;3015;51.390;12.256;2022-08-03T10:17:31;45.30;99.90
5978;DHT22;3015;51.390;12.256;2022-08-03T10:19:57;45.40;99.90
5978;DHT22;3015;51.390;12.256;2022-08-03T10:22:27;45.50;99.90
5978;DHT22;3015;51.390;12.256;2022-08-03T10:25:08;45.50;99.90
5978;DHT22;3015;51.390;12.256;2022-08-03T10:27:43;46.20;99.90
5978;DHT22;3015;51.390;12.256;2022-08-03T10:30:11;46.30;99.90
5978;DHT22;3015;51.390;12.256;2022-08-03T10:35:13;45.00;99.90
5978;DHT22;3015;51.390;12.256;2022-08-03T10:37:44;44.40;99.50
5978;DHT22;3015;51.390;12.256;2022-08-03T10:40:14;44.10;99.30
5978;DHT22;3015;51.390;12.256;2022-08-03T10:42:44;44.40;99.50
5978;DHT22;3015;51.390;12.256;2022-08-03T10:45:22;44.60;99.70
5978;DHT22;3015;51.390;12.256;2022-08-03T10:47:49;44.10;98.60
5978;DHT22;3015;51.390;12.256;2022-08-03T10:50:16;43.30;98.00
5978;DHT22;3015;51.390;12.256;2022-08-03T10:52:59;43.30;98.50
5978;DHT22;3015;51.390;12.256;2022-08-03T10:55:41;41.80;97.70
5978;DHT22;3015;51.390;12.256;2022-08-03T10:58:52;42.10;99.10
5978;DHT22;3015;51.390;12.256;2022-08-03T11:01:51;43.20;98.50
5978;DHT22;3015;51.390;12.256;2022-08-03T11:04:19;44.30;98.20
5978;DHT22;3015;51.390;12.256;2022-08-03T11:06:46;44.50;97.40
5978;DHT22;3015;51.390;12.256;2022-08-03T11:09:13;45.00;97.10
5978;DHT22;3015;51.390;12.256;2022-08-03T11:11:42;44.80;96.90
5978;DHT22;3015;51.390;12.256;2022-08-03T11:14:26;43.60;96.10
5978;DHT22;3015;51.390;12.256;2022-08-03T11:17:18;43.00;96.50
5978;DHT22;3015;51.390;12.256;2022-08-03T11:19:48;41.80;95.80
5978;DHT22;3015;51.390;12.256;2022-08-03T11:22:15;41.20;96.80
5978;DHT22;3015;51.390;12.256;2022-08-03T11:27:31;41.10;96.50
5978;DHT22;3015;51.390;12.256;2022-08-03T11:30:09;40.90;96.30
5978;DHT22;3015;51.390;12.256;2022-08-03T11:42:57;42.50;95.10
5978;DHT22;3015;51.390;12.256;2022-08-03T11:45:22;42.70;96.10
5978;DHT22;3015;51.390;12.256;2022-08-03T11:47:48;43.40;94.60
5978;DHT22;3015;51.390;12.256;2022-08-03T11:50:17;43.50;94.40
5978;DHT22;3015;51.390;12.256;2022-08-03T11:52:44;43.40;94.50
5978;DHT22;3015;51.390;12.256;2022-08-03T11:55:11;43.90;94.70
5978;DHT22;3015;51.390;12.256;2022-08-03T11:57:37;43.80;93.30
5978;DHT22;3015;51.390;12.256;2022-08-03T12:00:28;42.90;93.20
5978;DHT22;3015;51.390;12.256;2022-08-03T12:03:01;42.10;94.20
5978;DHT22;3015;51.390;12.256;2022-08-03T12:05:39;42.20;94.20
5978;DHT22;3015;51.390;12.256;2022-08-03T12:08:06;42.40;93.70
5978;DHT22;3015;51.390;12.256;2022-08-03T12:10:33;42.50;93.60
5978;DHT22;3015;51.390;12.256;2022-08-03T12:12:59;42.60;94.10
5978;DHT22;3015;51.390;12.256;2022-08-03T12:15:30;42.30;93.60
5978;DHT22;3015;51.390;12.256;2022-08-03T12:17:58;43.10;93.50
5978;DHT22;3015;51.390;12.256;2022-08-03T12:20:26;43.90;93.00
5978;DHT22;3015;51.390;12.256;2022-08-03T12:22:52;44.50;92.90
5978;DHT22;3015;51.390;12.256;2022-08-03T12:25:25;45.10;92.10
5978;DHT22;3015;51.390;12.256;2022-08-03T12:27:52;45.20;92.10
5978;DHT22;3015;51.390;12.256;2022-08-03T12:30:18;45.20;91.80
5978;DHT22;3015;51.390;12.256;2022-08-03T12:32:44;45.20;91.40
5978;DHT22;3015;51.390;12.256;2022-08-03T12:35:21;45.30;91.90
5978;DHT22;3015;51.390;12.256;2022-08-03T12:37:48;44.80;91.60
5978;DHT22;3015;51.390;12.256;2022-08-03T12:40:14;45.00;91.70
5978;DHT22;3015;51.390;12.256;2022-08-03T12:42:40;45.00;90.30
5978;DHT22;3015;51.390;12.256;2022-08-03T12:45:22;44.50;90.30
5978;DHT22;3015;51.390;12.256;2022-08-03T12:48:00;43.80;89.80
5978;DHT22;3015;51.390;12.256;2022-08-03T12:50:32;43.20;89.50
5978;DHT22;3015;51.390;12.256;2022-08-03T12:53:00;42.70;90.10
5978;DHT22;3015;51.390;12.256;2022-08-03T12:55:27;42.60;90.50
5978;DHT22;3015;51.390;12.256;2022-08-03T12:57:59;41.90;90.50
5978;DHT22;3015;51.390;12.256;2022-08-03T13:00:24;41.90;90.70
5978;DHT22;3015;51.390;12.256;2022-08-03T13:03:02;42.10;89.90
5978;DHT22;3015;51.390;12.256;2022-08-03T13:05:29;42.30;90.70
5978;DHT22;3015;51.390;12.256;2022-08-03T13:07:55;42.50;90.00
5978;DHT22;3015;51.390;12.256;2022-08-03T13:10:31;42.60;90.20
5978;DHT22;3015;51.390;12.256;2022-08-03T13:12:58;42.40;90.10
5978;DHT22;3015;51.390;12.256;2022-08-03T13:15:28;42.20;88.80
5978;DHT22;3015;51.390;12.256;2022-08-03T13:17:55;42.10;87.80
5978;DHT22;3015;51.390;12.256;2022-08-03T13:20:21;42.40;87.90
5978;DHT22;3015;51.390;12.256;2022-08-03T13:22:48;42.90;89.20
5978;DHT22;3015;51.390;12.256;2022-08-03T13:25:14;42.90;87.90
5978;DHT22;3015;51.390;12.256;2022-08-03T13:27:39;42.20;85.30
5978;DHT22;3015;51.390;12.256;2022-08-03T13:30:07;42.70;86.50
5978;DHT22;3015;51.390;12.256;2022-08-03T13:32:33;42.70;86.10
5978;DHT22;3015;51.390;12.256;2022-08-03T13:34:59;42.40;86.40
5978;DHT22;3015;51.390;12.256;2022-08-03T13:37:25;41.90;85.50
5978;DHT22;3015;51.390;12.256;2022-08-03T13:39:50;41.40;87.70
5978;DHT22;3015;51.390;12.256;2022-08-03T13:42:16;41.30;85.50
5978;DHT22;3015;51.390;12.256;2022-08-03T13:44:42;41.60;87.90
5978;DHT22;3015;51.390;12.256;2022-08-03T13:47:07;41.90;86.30
5978;DHT22;3015;51.390;12.256;2022-08-03T13:49:33;42.50;87.00
5978;DHT22;3015;51.390;12.256;2022-08-03T13:51:59;42.70;86.50
5978;DHT22;3015;51.390;12.256;2022-08-03T13:54:25;43.40;86.40
5978;DHT22;3015;51.390;12.256;2022-08-03T13:56:50;43.80;85.00
5978;DHT22;3015;51.390;12.256;2022-08-03T13:59:20;43.00;83.50
5978;DHT22;3015;51.390;12.256;2022-08-03T14:01:47;42.60;82.80
5978;DHT22;3015;51.390;12.256;2022-08-03T14:04:13;42.30;84.40
5978;DHT22;3015;51.390;12.256;2022-08-03T14:06:38;42.20;82.90
5978;DHT22;3015;51.390;12.256;2022-08-03T14:09:04;41.60;82.30
5978;DHT22;3015;51.390;12.256;2022-08-03T14:11:30;41.00;81.80
5978;DHT22;3015;51.390;12.256;2022-08-03T14:13:56;40.90;83.30
5978;DHT22;3015;51.390;12.256;2022-08-03T14:16:21;41.20;83.70
5978;DHT22;3015;51.390;12.256;2022-08-03T14:18:47;41.50;83.50
5978;DHT22;3015;51.390;12.256;2022-08-03T14:21:12;41.60;82.20
5978;DHT22;3015;51.390;12.256;2022-08-03T14:23:38;42.00;96.70
5978;DHT22;3015;51.390;12.256;2022-08-03T14:26:05;41.70;81.80
5978;DHT22;3015;51.390;12.256;2022-08-03T14:28:31;41.50;81.90
5978;DHT22;3015;51.390;12.256;2022-08-03T14:30:57;41.90;81.90
5978;DHT22;3015;51.390;12.256;2022-08-03T14:33:23;42.20;81.20
5978;DHT22;3015;51.390;12.256;2022-08-03T14:35:50;42.40;96.80
5978;DHT22;3015;51.390;12.256;2022-08-03T14:38:17;42.70;81.40
5978;DHT22;3015;51.390;12.256;2022-08-03T14:40:43;42.80;80.90
5978;DHT22;3015;51.390;12.256;2022-08-03T14:43:08;43.10;80.60
5978;DHT22;3015;51.390;12.256;2022-08-03T14:45:34;43.20;79.20
5978;DHT22;3015;51.390;12.256;2022-08-03T14:48:00;43.00;80.20
5978;DHT22;3015;51.390;12.256;2022-08-03T14:50:26;43.50;80.30
5978;DHT22;3015;51.390;12.256;2022-08-03T14:52:55;43.70;78.70
5978;DHT22;3015;51.390;12.256;2022-08-03T14:55:21;43.80;80.60
5978;DHT22;3015;51.390;12.256;2022-08-03T14:57:47;44.00;79.30
5978;DHT22;3015;51.390;12.256;2022-08-03T15:00:13;43.90;79.60
5978;DHT22;3015;51.390;12.256;2022-08-03T15:02:38;43.90;78.60
5978;DHT22;3015;51.390;12.256;2022-08-03T15:05:04;43.70;77.90
5978;DHT22;3015;51.390;12.256;2022-08-03T15:07:30;43.20;77.90
5978;DHT22;3015;51.390;12.256;2022-08-03T15:09:56;42.40;77.70
5978;DHT22;3015;51.390;12.256;2022-08-03T15:12:21;41.80;79.90
5978;DHT22;3015;51.390;12.256;2022-08-03T15:14:47;41.60;79.90
5978;DHT22;3015;51.390;12.256;2022-08-03T15:17:12;41.70;78.60
5978;DHT22;3015;51.390;12.256;2022-08-03T15:19:38;41.70;77.70
5978;DHT22;3015;51.390;12.256;2022-08-03T15:22:05;41.70;79.00
5978;DHT22;3015;51.390;12.256;2022-08-03T15:24:30;41.40;80.30
5978;DHT22;3015;51.390;12.256;2022-08-03T15:26:56;40.90;80.20
5978;DHT22;3015;51.390;12.256;2022-08-03T15:29:22;40.90;80.40
5978;DHT22;3015;51.390;12.256;2022-08-03T15:31:47;40.80;80.70
5978;DHT22;3015;51.390;12.256;2022-08-03T15:34:13;41.20;80.40
5978;DHT22;3015;51.390;12.256;2022-08-03T15:36:38;41.40;78.90
5978;DHT22;3015;51.390;12.256;2022-08-03T15:39:05;41.70;78.10
5978;DHT22;3015;51.390;12.256;2022-08-03T15:41:30;41.50;78.10
5978;DHT22;3015;51.390;12.256;2022-08-03T15:43:56;41.70;78.80
5978;DHT22;3015;51.390;12.256;2022-08-03T15:46:21;41.40;77.30
5978;DHT22;3015;51.390;12.256;2022-08-03T15:48:47;42.00;78.10
5978;DHT22;3015;51.390;12.256;2022-08-03T15:51:13;41.50;77.60
5978;DHT22;3015;51.390;12.256;2022-08-03T15:53:39;41.00;76.60
5978;DHT22;3015;51.390;12.256;2022-08-03T15:56:05;40.30;77.10
5978;DHT22;3015;51.390;12.256;2022-08-03T15:58:33;40.10;77.90
5978;DHT22;3015;51.390;12.256;2022-08-03T16:00:59;39.70;78.40
5978;DHT22;3015;51.390;12.256;2022-08-03T16:03:26;39.70;77.90
5978;DHT22;3015;51.390;12.256;2022-08-03T16:05:53;40.00;78.40
5978;DHT22;3015;51.390;12.256;2022-08-03T16:08:19;40.20;79.80
5978;DHT22;3015;51.390;12.256;2022-08-03T16:10:46;40.50;77.70
5978;DHT22;3015;51.390;12.256;2022-08-03T16:13:12;40.50;78.70
5978;DHT22;3015;51.390;12.256;2022-08-03T16:15:37;40.50;77.80
5978;DHT22;3015;51.390;12.256;2022-08-03T16:18:04;40.50;79.10
5978;DHT22;3015;51.390;12.256;2022-08-03T16:20:30;40.30;77.10